sensor_id;sensor_type;location;lat;lon;timestamp;P1;durP1;ratioP1;P2;durP2;ratioP2
75687;SDS011;64300;45.034;38.910;2023-02-15T00:01:57;21.23;;;7.57;;
75687;SDS011;64300;45.034;38.910;2023-02-15T00:04:24;18.40;;;7.57;;
75687;SDS011;64300;45.034;38.910;2023-02-15T00:07:10;16.80;;;6.55;;
75687;SDS011;64300;45.034;38.910;2023-02-15T00:09:36;15.52;;;5.78;;
75687;SDS011;64300;45.034;38.910;2023-02-15T00:15:21;18.77;;;6.22;;
75687;SDS011;64300;45.034;38.910;2023-02-15T00:17:46;15.50;;;6.47;;
75687;SDS011;64300;45.034;38.910;2023-02-15T00:20:12;11.02;;;4.78;;
75687;SDS011;64300;45.034;38.910;2023-02-15T00:22:38;13.43;;;5.78;;
75687;SDS011;64300;45.034;38.910;2023-02-15T00:25:04;10.02;;;3.95;;
75687;SDS011;64300;45.034;38.910;2023-02-15T00:27:30;12.77;;;6.10;;
75687;SDS011;64300;45.034;38.910;2023-02-15T00:29:56;20.70;;;7.68;;
75687;SDS011;64300;45.034;38.910;2023-02-15T00:32:22;16.42;;;6.20;;
75687;SDS011;64300;45.034;38.910;2023-02-15T00:34:47;22.10;;;8.05;;
75687;SDS011;64300;45.034;38.910;2023-02-15T00:37:13;14.82;;;6.28;;
75687;SDS011;64300;45.034;38.910;2023-02-15T00:39:39;12.73;;;5.22;;
75687;SDS011;64300;45.034;38.910;2023-02-15T00:42:05;10.10;;;4.63;;
75687;SDS011;64300;45.034;38.910;2023-02-15T00:44:31;7.70;;;3.45;;
75687;SDS011;64300;45.034;38.910;2023-02-15T00:50:51;7.78;;;3.83;;
75687;SDS011;64300;45.034;38.910;2023-02-15T00:53:18;12.38;;;4.97;;
75687;SDS011;64300;45.034;38.910;2023-02-15T00:55:45;19.83;;;6.70;;
75687;SDS011;64300;45.034;38.910;2023-02-15T00:58:11;24.60;;;6.63;;
75687;SDS011;64300;45.034;38.910;2023-02-15T01:00:38;15.82;;;7.10;;
75687;SDS011;64300;45.034;38.910;2023-02-15T01:03:06;17.77;;;6.53;;
75687;SDS011;64300;45.034;38.910;2023-02-15T01:05:32;18.48;;;6.97;;
75687;SDS011;64300;45.034;38.910;2023-02-15T01:07:59;18.38;;;7.18;;
75687;SDS011;64300;45.034;38.910;2023-02-15T01:10:26;15.90;;;6.35;;
75687;SDS011;64300;45.034;38.910;2023-02-15T01:12:55;12.43;;;5.10;;
75687;SDS011;64300;45.034;38.910;2023-02-15T01:15:21;20.92;;;8.00;;
75687;SDS011;64300;45.034;38.910;2023-02-15T01:17:47;12.98;;;5.60;;
75687;SDS011;64300;45.034;38.910;2023-02-15T01:20:20;16.60;;;4.80;;
75687;SDS011;64300;45.034;38.910;2023-02-15T01:22:48;15.60;;;6.10;;
75687;SDS011;64300;45.034;38.910;2023-02-15T01:25:15;13.38;;;5.38;;
75687;SDS011;64300;45.034;38.910;2023-02-15T01:27:42;13.65;;;5.82;;
75687;SDS011;64300;45.034;38.910;2023-02-15T01:30:08;16.92;;;7.35;;
75687;SDS011;64300;45.034;38.910;2023-02-15T01:32:35;21.05;;;7.13;;
75687;SDS011;64300;45.034;38.910;2023-02-15T01:38:11;14.77;;;6.15;;
75687;SDS011;64300;45.034;38.910;2023-02-15T01:40:38;16.05;;;6.18;;
75687;SDS011;64300;45.034;38.910;2023-02-15T01:43:11;14.52;;;6.03;;
75687;SDS011;64300;45.034;38.910;2023-02-15T01:45:37;15.90;;;7.15;;
75687;SDS011;64300;45.034;38.910;2023-02-15T01:53:40;13.25;;;5.63;;
75687;SDS011;64300;45.034;38.910;2023-02-15T01:56:23;13.25;;;4.90;;
75687;SDS011;64300;45.034;38.910;2023-02-15T01:58:52;6.25;;;3.05;;
75687;SDS011;64300;45.034;38.910;2023-02-15T02:01:20;15.88;;;5.88;;
75687;SDS011;64300;45.034;38.910;2023-02-15T02:03:59;13.35;;;5.63;;
75687;SDS011;64300;45.034;38.910;2023-02-15T02:06:29;16.25;;;5.72;;
75687;SDS011;64300;45.034;38.910;2023-02-15T02:08:55;13.90;;;5.68;;
75687;SDS011;64300;45.034;38.910;2023-02-15T02:11:22;17.23;;;6.72;;
75687;SDS011;64300;45.034;38.910;2023-02-15T02:13:48;8.80;;;5.18;;
75687;SDS011;64300;45.034;38.910;2023-02-15T02:18:46;8.68;;;3.53;;
75687;SDS011;64300;45.034;38.910;2023-02-15T02:24:02;13.68;;;6.10;;
75687;SDS011;64300;45.034;38.910;2023-02-15T02:33:06;8.90;;;4.53;;
75687;SDS011;64300;45.034;38.910;2023-02-15T02:38:08;14.20;;;5.55;;
75687;SDS011;64300;45.034;38.910;2023-02-15T02:40:48;14.20;;;5.13;;
75687;SDS011;64300;45.034;38.910;2023-02-15T02:46:20;13.95;;;5.35;;
75687;SDS011;64300;45.034;38.910;2023-02-15T02:48:51;15.40;;;5.20;;
75687;SDS011;64300;45.034;38.910;2023-02-15T02:51:18;9.52;;;4.90;;
75687;SDS011;64300;45.034;38.910;2023-02-15T02:53:48;18.33;;;6.15;;
75687;SDS011;64300;45.034;38.910;2023-02-15T02:58:50;11.45;;;3.33;;
75687;SDS011;64300;45.034;38.910;2023-02-15T03:01:24;4.40;;;2.15;;
75687;SDS011;64300;45.034;38.910;2023-02-15T03:04:05;15.65;;;6.75;;
75687;SDS011;64300;45.034;38.910;2023-02-15T03:09:24;12.38;;;4.78;;
75687;SDS011;64300;45.034;38.910;2023-02-15T03:12:00;13.48;;;5.10;;
75687;SDS011;64300;45.034;38.910;2023-02-15T03:14:30;19.92;;;7.63;;
75687;SDS011;64300;45.034;38.910;2023-02-15T03:16:56;12.73;;;4.78;;
75687;SDS011;64300;45.034;38.910;2023-02-15T03:19:25;16.50;;;6.07;;
75687;SDS011;64300;45.034;38.910;2023-02-15T03:21:56;13.50;;;4.97;;
75687;SDS011;64300;45.034;38.910;2023-02-15T03:24:35;12.68;;;5.63;;
75687;SDS011;64300;45.034;38.910;2023-02-15T03:27:10;9.27;;;4.53;;
75687;SDS011;64300;45.034;38.910;2023-02-15T03:29:42;15.55;;;6.82;;
75687;SDS011;64300;45.034;38.910;2023-02-15T03:32:11;14.48;;;6.45;;
75687;SDS011;64300;45.034;38.910;2023-02-15T03:34:39;13.35;;;2.50;;
75687;SDS011;64300;45.034;38.910;2023-02-15T03:42:43;16.63;;;7.32;;
75687;SDS011;64300;45.034;38.910;2023-02-15T03:45:11;13.48;;;4.80;;
75687;SDS011;64300;45.034;38.910;2023-02-15T03:47:42;11.75;;;5.38;;
75687;SDS011;64300;45.034;38.910;2023-02-15T03:50:12;12.00;;;5.93;;
75687;SDS011;64300;45.034;38.910;2023-02-15T03:53:02;18.35;;;6.13;;
75687;SDS011;64300;45.034;38.910;2023-02-15T03:55:31;16.95;;;7.60;;
75687;SDS011;64300;45.034;38.910;2023-02-15T03:57:58;14.30;;;6.70;;
75687;SDS011;64300;45.034;38.910;2023-02-15T04:00:44;15.18;;;6.82;;
75687;SDS011;64300;45.034;38.910;2023-02-15T04:03:43;15.90;;;6.50;;
75687;SDS011;64300;45.034;38.910;2023-02-15T04:06:14;18.38;;;6.85;;
75687;SDS011;64300;45.034;38.910;2023-02-15T04:08:40;10.57;;;4.82;;
75687;SDS011;64300;45.034;38.910;2023-02-15T04:11:25;6.60;;;2.70;;
75687;SDS011;64300;45.034;38.910;2023-02-15T04:13:50;10.23;;;3.70;;
75687;SDS011;64300;45.034;38.910;2023-02-15T04:16:24;10.18;;;3.33;;
75687;SDS011;64300;45.034;38.910;2023-02-15T04:18:50;12.88;;;5.07;;
75687;SDS011;64300;45.034;38.910;2023-02-15T04:21:35;11.85;;;4.22;;
75687;SDS011;64300;45.034;38.910;2023-02-15T04:24:20;16.77;;;6.15;;
75687;SDS011;64300;45.034;38.910;2023-02-15T04:27:05;18.55;;;3.55;;
75687;SDS011;64300;45.034;38.910;2023-02-15T04:29:31;12.27;;;3.65;;
75687;SDS011;64300;45.034;38.910;2023-02-15T04:31:58;12.38;;;4.65;;
75687;SDS011;64300;45.034;38.910;2023-02-15T04:34:25;20.15;;;7.18;;
75687;SDS011;64300;45.034;38.910;2023-02-15T04:36:51;16.92;;;6.38;;
75687;SDS011;64300;45.034;38.910;2023-02-15T04:39:17;18.23;;;6.68;;
75687;SDS011;64300;45.034;38.910;2023-02-15T04:41:44;15.43;;;6.75;;
75687;SDS011;64300;45.034;38.910;2023-02-15T04:44:10;20.60;;;7.72;;
75687;SDS011;64300;45.034;38.910;2023-02-15T04:49:02;16.05;;;6.88;;
75687;SDS011;64300;45.034;38.910;2023-02-15T04:51:28;14.68;;;5.78;;
75687;SDS011;64300;45.034;38.910;2023-02-15T04:53:54;7.43;;;3.53;;
75687;SDS011;64300;45.034;38.910;2023-02-15T04:56:21;21.08;;;9.18;;
75687;SDS011;64300;45.034;38.910;2023-02-15T04:58:48;19.52;;;7.85;;
75687;SDS011;64300;45.034;38.910;2023-02-15T05:01:14;21.17;;;7.90;;
75687;SDS011;64300;45.034;38.910;2023-02-15T05:03:40;17.25;;;6.35;;
75687;SDS011;64300;45.034;38.910;2023-02-15T05:09:22;16.50;;;7.07;;
75687;SDS011;64300;45.034;38.910;2023-02-15T05:11:48;20.65;;;8.75;;
75687;SDS011;64300;45.034;38.910;2023-02-15T05:14:14;18.65;;;7.47;;
75687;SDS011;64300;45.034;38.910;2023-02-15T05:16:40;20.13;;;7.70;;
75687;SDS011;64300;45.034;38.910;2023-02-15T05:19:06;16.05;;;6.18;;
75687;SDS011;64300;45.034;38.910;2023-02-15T05:21:32;20.75;;;8.52;;
75687;SDS011;64300;45.034;38.910;2023-02-15T05:26:24;20.70;;;8.30;;
75687;SDS011;64300;45.034;38.910;2023-02-15T05:32:13;21.08;;;8.50;;
75687;SDS011;64300;45.034;38.910;2023-02-15T05:34:39;21.92;;;8.70;;
75687;SDS011;64300;45.034;38.910;2023-02-15T05:37:05;23.80;;;8.70;;
75687;SDS011;64300;45.034;38.910;2023-02-15T05:39:32;26.77;;;10.13;;
75687;SDS011;64300;45.034;38.910;2023-02-15T05:41:59;20.83;;;8.30;;
75687;SDS011;64300;45.034;38.910;2023-02-15T05:47:25;25.52;;;9.43;;
75687;SDS011;64300;45.034;38.910;2023-02-15T05:49:51;26.15;;;8.23;;
75687;SDS011;64300;45.034;38.910;2023-02-15T05:52:17;22.05;;;7.93;;
75687;SDS011;64300;45.034;38.910;2023-02-15T05:54:43;22.80;;;9.15;;
75687;SDS011;64300;45.034;38.910;2023-02-15T05:57:09;23.77;;;9.18;;
75687;SDS011;64300;45.034;38.910;2023-02-15T05:59:34;21.35;;;8.02;;
75687;SDS011;64300;45.034;38.910;2023-02-15T06:02:00;19.65;;;7.18;;
75687;SDS011;64300;45.034;38.910;2023-02-15T06:04:26;24.15;;;9.40;;
75687;SDS011;64300;45.034;38.910;2023-02-15T06:06:52;23.98;;;9.27;;
75687;SDS011;64300;45.034;38.910;2023-02-15T06:09:18;22.40;;;8.45;;
75687;SDS011;64300;45.034;38.910;2023-02-15T06:11:45;11.40;;;5.60;;
75687;SDS011;64300;45.034;38.910;2023-02-15T06:14:11;19.75;;;8.80;;
75687;SDS011;64300;45.034;38.910;2023-02-15T06:16:37;22.30;;;9.32;;
75687;SDS011;64300;45.034;38.910;2023-02-15T06:19:03;21.73;;;8.98;;
75687;SDS011;64300;45.034;38.910;2023-02-15T06:21:31;21.77;;;8.48;;
75687;SDS011;64300;45.034;38.910;2023-02-15T06:23:57;22.25;;;9.43;;
75687;SDS011;64300;45.034;38.910;2023-02-15T06:26:23;18.75;;;8.77;;
75687;SDS011;64300;45.034;38.910;2023-02-15T06:28:49;19.48;;;8.18;;
75687;SDS011;64300;45.034;38.910;2023-02-15T06:31:15;21.85;;;9.38;;
75687;SDS011;64300;45.034;38.910;2023-02-15T06:33:41;18.88;;;8.75;;
75687;SDS011;64300;45.034;38.910;2023-02-15T06:36:06;22.70;;;9.38;;
75687;SDS011;64300;45.034;38.910;2023-02-15T06:38:32;23.17;;;9.32;;
75687;SDS011;64300;45.034;38.910;2023-02-15T06:40:58;23.75;;;9.68;;
75687;SDS011;64300;45.034;38.910;2023-02-15T06:43:24;20.45;;;9.18;;
75687;SDS011;64300;45.034;38.910;2023-02-15T06:45:50;20.90;;;9.40;;
75687;SDS011;64300;45.034;38.910;2023-02-15T06:48:16;23.35;;;10.13;;
75687;SDS011;64300;45.034;38.910;2023-02-15T06:50:42;24.67;;;8.90;;
75687;SDS011;64300;45.034;38.910;2023-02-15T06:53:08;19.75;;;8.85;;
75687;SDS011;64300;45.034;38.910;2023-02-15T06:55:33;21.48;;;9.10;;
75687;SDS011;64300;45.034;38.910;2023-02-15T06:57:59;21.15;;;9.30;;
75687;SDS011;64300;45.034;38.910;2023-02-15T07:00:25;22.77;;;8.77;;
75687;SDS011;64300;45.034;38.910;2023-02-15T07:02:54;21.63;;;10.02;;
75687;SDS011;64300;45.034;38.910;2023-02-15T07:05:24;26.80;;;9.75;;
75687;SDS011;64300;45.034;38.910;2023-02-15T07:07:56;16.77;;;7.78;;
75687;SDS011;64300;45.034;38.910;2023-02-15T07:10:23;21.67;;;8.40;;
75687;SDS011;64300;45.034;38.910;2023-02-15T07:12:48;14.27;;;6.53;;
75687;SDS011;64300;45.034;38.910;2023-02-15T07:15:15;15.55;;;6.70;;
75687;SDS011;64300;45.034;38.910;2023-02-15T07:17:43;13.68;;;5.57;;
75687;SDS011;64300;45.034;38.910;2023-02-15T07:22:36;13.27;;;5.55;;
75687;SDS011;64300;45.034;38.910;2023-02-15T07:25:03;14.00;;;7.05;;
75687;SDS011;64300;45.034;38.910;2023-02-15T07:27:31;15.02;;;6.30;;
75687;SDS011;64300;45.034;38.910;2023-02-15T07:29:57;15.60;;;5.93;;
75687;SDS011;64300;45.034;38.910;2023-02-15T07:32:23;12.98;;;5.85;;
75687;SDS011;64300;45.034;38.910;2023-02-15T07:34:49;10.68;;;4.47;;
75687;SDS011;64300;45.034;38.910;2023-02-15T07:37:15;15.45;;;6.78;;
75687;SDS011;64300;45.034;38.910;2023-02-15T07:39:44;14.13;;;6.75;;
75687;SDS011;64300;45.034;38.910;2023-02-15T07:42:09;15.25;;;6.65;;
75687;SDS011;64300;45.034;38.910;2023-02-15T07:44:36;16.38;;;7.05;;
75687;SDS011;64300;45.034;38.910;2023-02-15T07:47:02;17.15;;;6.63;;
75687;SDS011;64300;45.034;38.910;2023-02-15T07:49:28;15.73;;;7.38;;
75687;SDS011;64300;45.034;38.910;2023-02-15T07:51:57;17.88;;;7.57;;
75687;SDS011;64300;45.034;38.910;2023-02-15T07:54:25;19.45;;;7.65;;
75687;SDS011;64300;45.034;38.910;2023-02-15T07:56:51;16.23;;;7.60;;
75687;SDS011;64300;45.034;38.910;2023-02-15T07:59:17;14.70;;;6.65;;
75687;SDS011;64300;45.034;38.910;2023-02-15T08:01:45;15.63;;;6.95;;
75687;SDS011;64300;45.034;38.910;2023-02-15T08:04:20;16.23;;;7.25;;
75687;SDS011;64300;45.034;38.910;2023-02-15T08:06:46;17.70;;;7.38;;
75687;SDS011;64300;45.034;38.910;2023-02-15T08:09:12;12.77;;;6.28;;
75687;SDS011;64300;45.034;38.910;2023-02-15T08:11:38;16.70;;;7.07;;
75687;SDS011;64300;45.034;38.910;2023-02-15T08:14:08;18.55;;;7.72;;
75687;SDS011;64300;45.034;38.910;2023-02-15T08:19:25;16.60;;;7.65;;
75687;SDS011;64300;45.034;38.910;2023-02-15T08:21:53;15.48;;;7.68;;
75687;SDS011;64300;45.034;38.910;2023-02-15T08:27:32;14.50;;;6.72;;
75687;SDS011;64300;45.034;38.910;2023-02-15T08:29:58;14.57;;;7.25;;
75687;SDS011;64300;45.034;38.910;2023-02-15T08:32:24;14.48;;;7.32;;
75687;SDS011;64300;45.034;38.910;2023-02-15T08:34:49;16.50;;;7.35;;
75687;SDS011;64300;45.034;38.910;2023-02-15T08:37:15;16.23;;;7.93;;
75687;SDS011;64300;45.034;38.910;2023-02-15T08:39:41;19.20;;;9.13;;
75687;SDS011;64300;45.034;38.910;2023-02-15T08:42:08;13.48;;;6.97;;
75687;SDS011;64300;45.034;38.910;2023-02-15T08:44:34;12.27;;;6.03;;
75687;SDS011;64300;45.034;38.910;2023-02-15T08:47:00;10.73;;;3.58;;
75687;SDS011;64300;45.034;38.910;2023-02-15T08:49:28;9.75;;;3.95;;
75687;SDS011;64300;45.034;38.910;2023-02-15T08:51:57;10.45;;;5.45;;
75687;SDS011;64300;45.034;38.910;2023-02-15T08:54:23;16.38;;;6.07;;
75687;SDS011;64300;45.034;38.910;2023-02-15T08:56:49;9.25;;;4.47;;
75687;SDS011;64300;45.034;38.910;2023-02-15T08:59:18;13.35;;;6.10;;
75687;SDS011;64300;45.034;38.910;2023-02-15T09:01:45;11.20;;;5.32;;
75687;SDS011;64300;45.034;38.910;2023-02-15T09:04:12;11.73;;;5.13;;
75687;SDS011;64300;45.034;38.910;2023-02-15T09:06:41;9.52;;;4.28;;
75687;SDS011;64300;45.034;38.910;2023-02-15T09:09:09;15.50;;;5.57;;
75687;SDS011;64300;45.034;38.910;2023-02-15T09:11:37;15.23;;;5.93;;
75687;SDS011;64300;45.034;38.910;2023-02-15T09:14:09;8.35;;;4.38;;
75687;SDS011;64300;45.034;38.910;2023-02-15T09:16:38;12.82;;;4.88;;
75687;SDS011;64300;45.034;38.910;2023-02-15T09:19:06;9.60;;;4.28;;
75687;SDS011;64300;45.034;38.910;2023-02-15T09:21:33;8.70;;;3.88;;
75687;SDS011;64300;45.034;38.910;2023-02-15T09:24:02;10.80;;;5.22;;
75687;SDS011;64300;45.034;38.910;2023-02-15T09:26:30;6.57;;;3.10;;
75687;SDS011;64300;45.034;38.910;2023-02-15T09:28:58;15.18;;;5.68;;
75687;SDS011;64300;45.034;38.910;2023-02-15T09:31:27;8.70;;;3.42;;
75687;SDS011;64300;45.034;38.910;2023-02-15T09:33:56;6.30;;;3.63;;
75687;SDS011;64300;45.034;38.910;2023-02-15T09:36:27;10.75;;;4.05;;
75687;SDS011;64300;45.034;38.910;2023-02-15T09:38:57;11.93;;;5.28;;
75687;SDS011;64300;45.034;38.910;2023-02-15T09:52:26;8.95;;;3.55;;
75687;SDS011;64300;45.034;38.910;2023-02-15T10:01:06;4.82;;;2.30;;
75687;SDS011;64300;45.034;38.910;2023-02-15T10:26:16;5.63;;;2.30;;
75687;SDS011;64300;45.034;38.910;2023-02-15T10:28:56;9.30;;;3.47;;
75687;SDS011;64300;45.034;38.910;2023-02-15T10:31:37;5.15;;;2.92;;
75687;SDS011;64300;45.034;38.910;2023-02-15T10:35:22;5.65;;;2.78;;
75687;SDS011;64300;45.034;38.910;2023-02-15T10:37:53;4.18;;;2.00;;
75687;SDS011;64300;45.034;38.910;2023-02-15T10:52:59;5.63;;;2.35;;
75687;SDS011;64300;45.034;38.910;2023-02-15T11:06:57;4.77;;;1.87;;
75687;SDS011;64300;45.034;38.910;2023-02-15T11:09:30;4.07;;;1.00;;
75687;SDS011;64300;45.034;38.910;2023-02-15T11:12:12;2.35;;;0.95;;
75687;SDS011;64300;45.034;38.910;2023-02-15T11:14:46;2.15;;;0.95;;
75687;SDS011;64300;45.034;38.910;2023-02-15T11:17:28;2.70;;;1.25;;
75687;SDS011;64300;45.034;38.910;2023-02-15T11:22:51;5.25;;;1.75;;
75687;SDS011;64300;45.034;38.910;2023-02-15T11:27:56;7.55;;;1.70;;
75687;SDS011;64300;45.034;38.910;2023-02-15T11:30:23;3.85;;;1.27;;
75687;SDS011;64300;45.034;38.910;2023-02-15T11:32:54;5.50;;;1.73;;
75687;SDS011;64300;45.034;38.910;2023-02-15T11:35:27;3.22;;;1.30;;
75687;SDS011;64300;45.034;38.910;2023-02-15T11:37:55;2.50;;;1.10;;
75687;SDS011;64300;45.034;38.910;2023-02-15T11:41:01;1.63;;;0.60;;
75687;SDS011;64300;45.034;38.910;2023-02-15T11:46:11;1.80;;;0.70;;
75687;SDS011;64300;45.034;38.910;2023-02-15T11:48:38;3.78;;;1.13;;
75687;SDS011;64300;45.034;38.910;2023-02-15T11:51:14;8.57;;;1.90;;
75687;SDS011;64300;45.034;38.910;2023-02-15T11:53:43;4.30;;;1.70;;
75687;SDS011;64300;45.034;38.910;2023-02-15T11:56:21;5.25;;;1.35;;
75687;SDS011;64300;45.034;38.910;2023-02-15T12:02:16;2.90;;;1.58;;
75687;SDS011;64300;45.034;38.910;2023-02-15T12:04:46;2.33;;;0.90;;
75687;SDS011;64300;45.034;38.910;2023-02-15T12:10:04;4.55;;;0.98;;
75687;SDS011;64300;45.034;38.910;2023-02-15T12:12:39;2.78;;;1.38;;
75687;SDS011;64300;45.034;38.910;2023-02-15T12:15:06;4.28;;;1.92;;
75687;SDS011;64300;45.034;38.910;2023-02-15T12:22:39;4.18;;;1.80;;
75687;SDS011;64300;45.034;38.910;2023-02-15T12:28:02;3.25;;;1.48;;
75687;SDS011;64300;45.034;38.910;2023-02-15T12:30:35;3.50;;;1.33;;
75687;SDS011;64300;45.034;38.910;2023-02-15T12:41:56;4.22;;;1.75;;
75687;SDS011;64300;45.034;38.910;2023-02-15T12:44:23;3.45;;;1.33;;
75687;SDS011;64300;45.034;38.910;2023-02-15T12:49:30;4.60;;;2.38;;
75687;SDS011;64300;45.034;38.910;2023-02-15T12:52:02;12.95;;;2.10;;
75687;SDS011;64300;45.034;38.910;2023-02-15T12:54:34;4.78;;;1.98;;
75687;SDS011;64300;45.034;38.910;2023-02-15T12:57:15;2.47;;;1.08;;
75687;SDS011;64300;45.034;38.910;2023-02-15T13:02:53;5.32;;;1.98;;
75687;SDS011;64300;45.034;38.910;2023-02-15T13:05:31;3.97;;;2.22;;
75687;SDS011;64300;45.034;38.910;2023-02-15T13:07:58;8.95;;;3.00;;
75687;SDS011;64300;45.034;38.910;2023-02-15T13:10:35;16.33;;;4.00;;
75687;SDS011;64300;45.034;38.910;2023-02-15T13:13:09;4.38;;;2.05;;
75687;SDS011;64300;45.034;38.910;2023-02-15T13:18:46;3.65;;;1.92;;
75687;SDS011;64300;45.034;38.910;2023-02-15T13:21:16;3.67;;;1.50;;
75687;SDS011;64300;45.034;38.910;2023-02-15T13:23:47;5.53;;;1.98;;
75687;SDS011;64300;45.034;38.910;2023-02-15T13:26:18;6.53;;;2.65;;
75687;SDS011;64300;45.034;38.910;2023-02-15T13:28:47;4.07;;;2.00;;
75687;SDS011;64300;45.034;38.910;2023-02-15T13:31:17;5.25;;;1.73;;
75687;SDS011;64300;45.034;38.910;2023-02-15T13:33:48;5.30;;;2.70;;
75687;SDS011;64300;45.034;38.910;2023-02-15T13:36:33;4.32;;;2.40;;
75687;SDS011;64300;45.034;38.910;2023-02-15T13:39:15;9.68;;;4.18;;
75687;SDS011;64300;45.034;38.910;2023-02-15T13:41:47;5.22;;;2.80;;
75687;SDS011;64300;45.034;38.910;2023-02-15T13:55:06;6.45;;;2.80;;
75687;SDS011;64300;45.034;38.910;2023-02-15T14:00:36;5.07;;;1.90;;
75687;SDS011;64300;45.034;38.910;2023-02-15T14:05:48;6.28;;;3.58;;
75687;SDS011;64300;45.034;38.910;2023-02-15T14:16:27;2.97;;;1.65;;
75687;SDS011;64300;45.034;38.910;2023-02-15T14:21:51;7.45;;;3.20;;
75687;SDS011;64300;45.034;38.910;2023-02-15T14:24:37;8.88;;;3.80;;
75687;SDS011;64300;45.034;38.910;2023-02-15T14:35:34;9.80;;;4.43;;
75687;SDS011;64300;45.034;38.910;2023-02-15T14:40:54;5.63;;;2.53;;
75687;SDS011;64300;45.034;38.910;2023-02-15T14:46:24;8.52;;;3.55;;
75687;SDS011;64300;45.034;38.910;2023-02-15T14:48:56;5.90;;;2.33;;
75687;SDS011;64300;45.034;38.910;2023-02-15T14:59:50;8.32;;;4.00;;
75687;SDS011;64300;45.034;38.910;2023-02-15T15:05:46;5.80;;;2.75;;
75687;SDS011;64300;45.034;38.910;2023-02-15T15:07:59;7.88;;;3.38;;
75687;SDS011;64300;45.034;38.910;2023-02-15T15:10:41;3.53;;;1.73;;
75687;SDS011;64300;45.034;38.910;2023-02-15T15:15:56;7.68;;;2.97;;
75687;SDS011;64300;45.034;38.910;2023-02-15T15:18:43;7.15;;;3.10;;
75687;SDS011;64300;45.034;38.910;2023-02-15T15:21:11;5.70;;;2.72;;
75687;SDS011;64300;45.034;38.910;2023-02-15T15:46:40;4.20;;;1.98;;
75687;SDS011;64300;45.034;38.910;2023-02-15T15:49:24;5.78;;;2.70;;
75687;SDS011;64300;45.034;38.910;2023-02-15T15:51:59;6.10;;;2.85;;
75687;SDS011;64300;45.034;38.910;2023-02-15T15:54:46;6.88;;;2.30;;
75687;SDS011;64300;45.034;38.910;2023-02-15T15:57:29;6.28;;;2.70;;
75687;SDS011;64300;45.034;38.910;2023-02-15T15:59:59;14.55;;;3.13;;
75687;SDS011;64300;45.034;38.910;2023-02-15T16:02:27;10.43;;;3.47;;
75687;SDS011;64300;45.034;38.910;2023-02-15T16:04:53;10.02;;;4.43;;
75687;SDS011;64300;45.034;38.910;2023-02-15T16:09:59;9.35;;;4.40;;
75687;SDS011;64300;45.034;38.910;2023-02-15T16:12:27;9.30;;;3.97;;
75687;SDS011;64300;45.034;38.910;2023-02-15T16:18:49;11.02;;;4.60;;
75687;SDS011;64300;45.034;38.910;2023-02-15T16:21:20;14.52;;;5.28;;
75687;SDS011;64300;45.034;38.910;2023-02-15T16:28:58;9.48;;;4.43;;
75687;SDS011;64300;45.034;38.910;2023-02-15T16:31:24;9.85;;;4.15;;
75687;SDS011;64300;45.034;38.910;2023-02-15T16:33:54;8.95;;;3.90;;
75687;SDS011;64300;45.034;38.910;2023-02-15T16:41:25;11.60;;;3.70;;
75687;SDS011;64300;45.034;38.910;2023-02-15T16:43:54;12.35;;;5.20;;
75687;SDS011;64300;45.034;38.910;2023-02-15T16:46:34;27.13;;;7.75;;
75687;SDS011;64300;45.034;38.910;2023-02-15T16:49:07;24.63;;;8.90;;
75687;SDS011;64300;45.034;38.910;2023-02-15T16:51:41;20.80;;;8.45;;
75687;SDS011;64300;45.034;38.910;2023-02-15T16:54:14;31.00;;;11.57;;
75687;SDS011;64300;45.034;38.910;2023-02-15T16:56:50;11.00;;;4.45;;
75687;SDS011;64300;45.034;38.910;2023-02-15T17:02:14;13.82;;;5.50;;
75687;SDS011;64300;45.034;38.910;2023-02-15T17:05:33;10.73;;;4.68;;
75687;SDS011;64300;45.034;38.910;2023-02-15T17:07:40;6.78;;;3.60;;
75687;SDS011;64300;45.034;38.910;2023-02-15T17:12:54;10.40;;;4.20;;
75687;SDS011;64300;45.034;38.910;2023-02-15T17:15:29;11.63;;;4.57;;
75687;SDS011;64300;45.034;38.910;2023-02-15T17:20:47;11.40;;;4.22;;
75687;SDS011;64300;45.034;38.910;2023-02-15T17:25:55;8.95;;;3.72;;
75687;SDS011;64300;45.034;38.910;2023-02-15T17:28:27;6.03;;;2.65;;
75687;SDS011;64300;45.034;38.910;2023-02-15T17:30:55;8.93;;;4.78;;
75687;SDS011;64300;45.034;38.910;2023-02-15T17:36:04;9.98;;;3.35;;
75687;SDS011;64300;45.034;38.910;2023-02-15T17:38:37;5.22;;;2.78;;
75687;SDS011;64300;45.034;38.910;2023-02-15T17:43:41;10.50;;;4.00;;
75687;SDS011;64300;45.034;38.910;2023-02-15T17:46:07;7.28;;;4.07;;
75687;SDS011;64300;45.034;38.910;2023-02-15T17:48:39;4.88;;;2.65;;
75687;SDS011;64300;45.034;38.910;2023-02-15T17:51:10;10.45;;;4.15;;
75687;SDS011;64300;45.034;38.910;2023-02-15T17:53:38;7.25;;;3.75;;
75687;SDS011;64300;45.034;38.910;2023-02-15T17:56:05;7.50;;;2.80;;
75687;SDS011;64300;45.034;38.910;2023-02-15T17:58:37;6.75;;;3.30;;
75687;SDS011;64300;45.034;38.910;2023-02-15T18:01:10;8.23;;;3.65;;
75687;SDS011;64300;45.034;38.910;2023-02-15T18:04:01;6.18;;;3.35;;
75687;SDS011;64300;45.034;38.910;2023-02-15T18:06:45;6.35;;;3.25;;
75687;SDS011;64300;45.034;38.910;2023-02-15T18:09:33;10.68;;;4.72;;
75687;SDS011;64300;45.034;38.910;2023-02-15T18:14:52;12.35;;;4.45;;
75687;SDS011;64300;45.034;38.910;2023-02-15T18:20:06;11.20;;;4.20;;
75687;SDS011;64300;45.034;38.910;2023-02-15T18:22:53;11.38;;;4.63;;
75687;SDS011;64300;45.034;38.910;2023-02-15T18:25:22;8.05;;;4.10;;
75687;SDS011;64300;45.034;38.910;2023-02-15T18:27:50;7.53;;;3.83;;
75687;SDS011;64300;45.034;38.910;2023-02-15T18:30:20;9.35;;;4.72;;
75687;SDS011;64300;45.034;38.910;2023-02-15T18:32:51;9.88;;;4.43;;
75687;SDS011;64300;45.034;38.910;2023-02-15T18:35:21;8.45;;;4.40;;
75687;SDS011;64300;45.034;38.910;2023-02-15T18:37:53;10.23;;;4.55;;
75687;SDS011;64300;45.034;38.910;2023-02-15T18:40:21;9.27;;;4.55;;
75687;SDS011;64300;45.034;38.910;2023-02-15T18:42:49;12.27;;;5.05;;
75687;SDS011;64300;45.034;38.910;2023-02-15T18:47:58;11.30;;;4.95;;
75687;SDS011;64300;45.034;38.910;2023-02-15T18:50:27;8.30;;;4.13;;
75687;SDS011;64300;45.034;38.910;2023-02-15T18:52:57;9.65;;;4.75;;
75687;SDS011;64300;45.034;38.910;2023-02-15T18:55:24;4.30;;;2.10;;
75687;SDS011;64300;45.034;38.910;2023-02-15T18:57:57;12.27;;;5.10;;
75687;SDS011;64300;45.034;38.910;2023-02-15T19:00:28;10.15;;;4.75;;
75687;SDS011;64300;45.034;38.910;2023-02-15T19:02:58;9.23;;;4.72;;
75687;SDS011;64300;45.034;38.910;2023-02-15T19:05:27;12.05;;;4.75;;
75687;SDS011;64300;45.034;38.910;2023-02-15T19:07:54;10.27;;;4.18;;
75687;SDS011;64300;45.034;38.910;2023-02-15T19:10:25;12.10;;;5.50;;
75687;SDS011;64300;45.034;38.910;2023-02-15T19:12:53;10.23;;;5.65;;
75687;SDS011;64300;45.034;38.910;2023-02-15T19:15:23;10.23;;;5.53;;
75687;SDS011;64300;45.034;38.910;2023-02-15T19:17:52;11.07;;;5.30;;
75687;SDS011;64300;45.034;38.910;2023-02-15T19:22:52;12.50;;;6.35;;
75687;SDS011;64300;45.034;38.910;2023-02-15T19:25:22;14.40;;;6.57;;
75687;SDS011;64300;45.034;38.910;2023-02-15T19:27:53;16.60;;;5.93;;
75687;SDS011;64300;45.034;38.910;2023-02-15T19:32:56;10.35;;;5.40;;
75687;SDS011;64300;45.034;38.910;2023-02-15T19:35:24;14.00;;;5.85;;
75687;SDS011;64300;45.034;38.910;2023-02-15T19:37:52;10.13;;;4.85;;
75687;SDS011;64300;45.034;38.910;2023-02-15T19:40:27;13.35;;;5.10;;